createdAt,value
2023-03-05T00:02:51.417Z,86.30
2023-03-05T00:05:58.273Z,86.20
2023-03-05T00:09:03.320Z,86.30
2023-03-05T00:12:06.948Z,86.10
2023-03-05T00:15:10.831Z,86.50
2023-03-05T00:18:13.704Z,86.30
2023-03-05T00:21:20.517Z,86.60
2023-03-05T00:24:24.774Z,86.70
2023-03-05T00:27:27.661Z,86.30
2023-03-05T00:30:30.653Z,86.30
2023-03-05T00:33:33.535Z,86.70
2023-03-05T00:36:39.960Z,87.20
2023-03-05T00:39:44.185Z,87.20
2023-03-05T00:42:47.091Z,87.30
2023-03-05T00:45:49.948Z,87.60
2023-03-05T00:48:52.821Z,87.80
2023-03-05T00:51:55.718Z,87.60
2023-03-05T00:55:00.089Z,87.70
2023-03-05T00:58:03.130Z,87.60
2023-03-05T01:01:07.104Z,87.70
2023-03-05T01:04:10.315Z,87.90
2023-03-05T01:07:13.204Z,87.80
2023-03-05T01:10:17.705Z,87.50
2023-03-05T01:13:20.759Z,87.40
2023-03-05T01:16:23.675Z,87.50
2023-03-05T01:19:26.552Z,87.30
2023-03-05T01:22:29.931Z,87.20
2023-03-05T01:25:35.161Z,87.40
2023-03-05T01:28:38.733Z,87.70
2023-03-05T01:31:41.746Z,87.70
2023-03-05T01:34:45.064Z,88.30
2023-03-05T01:37:48.155Z,88.20
2023-03-05T01:40:52.765Z,88.40
2023-03-05T01:43:55.896Z,88.30
2023-03-05T01:46:58.946Z,88.40
2023-03-05T01:50:02.002Z,88.20
2023-03-05T01:53:08.104Z,88.70
2023-03-05T01:56:12.641Z,88.90
2023-03-05T01:59:16.205Z,88.90
2023-03-05T02:02:22.037Z,89.20
2023-03-05T02:05:27.965Z,89.30
2023-03-05T02:08:30.946Z,89.70
2023-03-05T02:11:36.359Z,90.20
2023-03-05T02:14:41.210Z,90.40
2023-03-05T02:17:44.309Z,91.20
2023-03-05T02:20:49.482Z,91.00
2023-03-05T02:23:53.698Z,91.00
2023-03-05T02:26:56.748Z,90.80
2023-03-05T02:29:59.620Z,90.60
2023-03-05T02:33:02.560Z,90.90
2023-03-05T02:36:06.288Z,91.10
2023-03-05T02:39:10.727Z,91.50
2023-03-05T02:42:13.617Z,91.00
2023-03-05T02:45:16.582Z,91.00
2023-03-05T02:48:19.475Z,91.30
2023-03-05T02:51:22.322Z,91.30
2023-03-05T02:54:26.870Z,91.20
2023-03-05T02:57:29.823Z,91.30
2023-03-05T03:00:32.706Z,91.20
2023-03-05T03:03:35.947Z,91.30
2023-03-05T03:06:38.826Z,91.10
2023-03-05T03:09:43.838Z,91.20
2023-03-05T03:12:46.946Z,91.40
2023-03-05T03:15:49.830Z,91.50
2023-03-05T03:18:53.216Z,91.50
2023-03-05T03:21:56.084Z,91.70
2023-03-05T03:25:00.806Z,92.00
2023-03-05T03:28:03.810Z,92.20
2023-03-05T03:31:06.840Z,92.40
2023-03-05T03:34:09.773Z,92.20
2023-03-05T03:37:12.759Z,92.30
2023-03-05T03:40:17.314Z,91.90
2023-03-05T03:43:20.169Z,92.10
2023-03-05T03:46:23.085Z,92.10
2023-03-05T03:49:27.074Z,92.20
2023-03-05T03:52:29.972Z,92.20
2023-03-05T03:55:34.290Z,92.30
2023-03-05T03:58:37.168Z,92.30
2023-03-05T04:01:40.231Z,92.20
2023-03-05T04:04:43.121Z,92.20
2023-03-05T04:07:46.159Z,92.30
2023-03-05T04:10:50.407Z,92.40
2023-03-05T04:13:53.290Z,92.30
2023-03-05T04:16:56.148Z,92.20
2023-03-05T04:19:59.008Z,92.00
2023-03-05T04:23:01.991Z,92.00
2023-03-05T04:26:06.470Z,92.10
2023-03-05T04:29:09.344Z,92.20
2023-03-05T04:32:12.292Z,92.30
2023-03-05T04:35:15.265Z,92.20
2023-03-05T04:38:18.294Z,92.40
2023-03-05T04:41:22.610Z,92.30
2023-03-05T04:44:26.048Z,92.40
2023-03-05T04:47:29.236Z,92.30
2023-03-05T04:50:32.138Z,92.00
2023-03-05T04:53:35.281Z,92.00
2023-03-05T04:56:39.488Z,92.20
2023-03-05T04:59:42.362Z,92.20
2023-03-05T05:02:47.210Z,92.20
2023-03-05T05:05:56.191Z,92.30
2023-03-05T05:08:59.463Z,92.20
2023-03-05T05:12:03.677Z,92.60
2023-03-05T05:15:09.395Z,92.30
2023-03-05T05:18:12.240Z,92.40
2023-03-05T05:21:18.531Z,92.50
2023-03-05T05:24:21.409Z,92.60
2023-03-05T05:27:25.691Z,92.60
2023-03-05T05:30:28.560Z,92.50
2023-03-05T05:33:31.430Z,92.40
2023-03-05T05:36:34.325Z,92.30
2023-03-05T05:39:37.406Z,92.30
2023-03-05T05:42:41.643Z,92.20
2023-03-05T05:45:45.182Z,92.40
2023-03-05T05:48:48.303Z,92.20
2023-03-05T05:51:51.270Z,92.30
2023-03-05T05:54:54.133Z,92.40
2023-03-05T05:57:58.358Z,92.40
2023-03-05T06:01:01.364Z,92.40
2023-03-05T06:04:04.625Z,92.40
2023-03-05T06:07:08.012Z,92.50
2023-03-05T06:10:12.238Z,92.70
2023-03-05T06:13:16.496Z,92.60
2023-03-05T06:16:23.857Z,92.70
2023-03-05T06:19:26.931Z,92.60
2023-03-05T06:22:29.845Z,92.60
2023-03-05T06:25:32.685Z,92.70
2023-03-05T06:28:37.073Z,92.80
2023-03-05T06:31:40.338Z,92.80
2023-03-05T06:34:43.192Z,93.10
2023-03-05T06:37:46.079Z,93.10
2023-03-05T06:40:48.987Z,93.30
2023-03-05T06:43:53.546Z,93.20
2023-03-05T06:46:56.540Z,93.10
2023-03-05T06:49:59.388Z,93.10
2023-03-05T06:53:02.265Z,92.90
2023-03-05T06:56:05.479Z,92.80
2023-03-05T06:59:11.420Z,92.70
2023-03-05T07:02:14.403Z,93.10
2023-03-05T07:05:17.360Z,93.20
2023-03-05T07:08:20.220Z,93.30
2023-03-05T07:11:23.856Z,93.20
2023-03-05T07:14:28.091Z,93.20
2023-03-05T07:17:31.231Z,93.20
2023-03-05T07:20:35.696Z,93.50
2023-03-05T07:23:38.562Z,93.20
2023-03-05T07:26:41.457Z,93.00
2023-03-05T07:29:45.669Z,93.20
2023-03-05T07:32:48.547Z,93.10
2023-03-05T07:35:51.529Z,93.10
2023-03-05T07:38:54.915Z,93.20
2023-03-05T07:41:57.780Z,93.00
2023-03-05T07:45:02.031Z,93.10
2023-03-05T07:48:05.068Z,93.20
2023-03-05T07:51:09.868Z,93.20
2023-03-05T07:54:12.733Z,93.10
2023-03-05T07:57:15.669Z,93.30
2023-03-05T08:00:20.825Z,93.30
2023-03-05T08:03:23.684Z,93.40
2023-03-05T08:06:26.568Z,93.30
2023-03-05T08:09:29.471Z,93.30
2023-03-05T08:12:32.551Z,93.40
2023-03-05T08:15:38.189Z,93.40
2023-03-05T08:18:41.647Z,93.40
2023-03-05T08:21:44.553Z,93.30
2023-03-05T08:24:47.667Z,93.40
2023-03-05T08:27:50.622Z,93.00
2023-03-05T08:30:54.965Z,93.40
2023-03-05T08:33:59.820Z,93.60
2023-03-05T08:37:02.675Z,93.60
2023-03-05T08:40:06.498Z,93.50
2023-03-05T08:43:09.375Z,93.60
2023-03-05T08:46:15.338Z,93.60
2023-03-05T08:49:18.210Z,93.40
2023-03-05T08:52:21.069Z,93.60
2023-03-05T08:55:24.066Z,93.60
2023-03-05T08:58:27.488Z,93.50
2023-03-05T09:01:32.387Z,93.30
2023-03-05T09:04:35.309Z,93.60
2023-03-05T09:07:38.848Z,93.60
2023-03-05T09:10:43.476Z,93.50
2023-03-05T09:13:46.435Z,93.60
2023-03-05T09:16:50.653Z,93.60
2023-03-05T09:19:53.640Z,93.80
2023-03-05T09:22:56.779Z,93.50
2023-03-05T09:25:59.859Z,93.50
2023-03-05T09:29:02.721Z,93.60
2023-03-05T09:32:07.991Z,93.40
2023-03-05T09:35:12.236Z,93.50
2023-03-05T09:38:15.595Z,93.30
2023-03-05T09:41:27.040Z,93.20
2023-03-05T09:44:42.409Z,93.40
2023-03-05T09:47:53.223Z,93.60
2023-03-05T09:51:02.052Z,93.80
2023-03-05T09:54:07.828Z,93.80
2023-03-05T09:57:18.418Z,93.90
2023-03-05T10:00:31.659Z,93.80
2023-03-05T10:03:54.667Z,93.90
2023-03-05T10:07:02.703Z,93.70
2023-03-05T10:10:10.819Z,93.80
2023-03-05T10:13:22.144Z,94.10
2023-03-05T10:16:53.410Z,94.00
2023-03-05T10:20:43.584Z,94.00
2023-03-05T10:24:05.690Z,93.90
2023-03-05T10:27:15.118Z,93.90
2023-03-05T10:30:33.545Z,94.00
2023-03-05T10:33:44.397Z,93.90
2023-03-05T10:37:00.745Z,93.90
2023-03-05T10:40:12.181Z,93.90
2023-03-05T10:43:25.053Z,93.90
2023-03-05T10:46:32.894Z,93.80
2023-03-05T10:49:39.687Z,93.90
2023-03-05T10:52:46.834Z,93.70
2023-03-05T10:55:50.774Z,93.60
2023-03-05T10:58:54.354Z,93.80
2023-03-05T11:02:04.955Z,93.70
2023-03-05T11:05:35.645Z,94.00
2023-03-05T11:08:40.453Z,93.90
2023-03-05T11:11:43.478Z,93.90
2023-03-05T11:15:02.796Z,93.90
2023-03-05T11:18:21.084Z,94.10
2023-03-05T11:21:27.888Z,94.20
2023-03-05T11:24:32.156Z,93.90
2023-03-05T11:27:38.860Z,93.90
2023-03-05T11:30:42.302Z,94.00
2023-03-05T11:34:00.936Z,93.80
2023-03-05T11:37:08.013Z,93.90
2023-03-05T11:40:21.598Z,93.70
2023-03-05T11:43:26.760Z,93.50
2023-03-05T11:46:30.608Z,93.50
2023-03-05T11:49:35.360Z,93.50
2023-03-05T11:52:46.881Z,93.30
2023-03-05T11:55:55.667Z,93.40
2023-03-05T11:59:02.865Z,93.60
2023-03-05T12:02:19.585Z,93.20
2023-03-05T12:05:23.053Z,93.00
2023-03-05T12:08:31.592Z,93.20
2023-03-05T12:11:37.388Z,93.30
2023-03-05T12:14:47.088Z,93.10
2023-03-05T12:17:57.084Z,92.70
2023-03-05T12:21:07.017Z,92.20
2023-03-05T12:24:35.653Z,92.20
2023-03-05T12:27:40.142Z,92.50
2023-03-05T12:30:58.651Z,92.50
2023-03-05T12:34:21.544Z,92.20
2023-03-05T12:38:01.781Z,92.20
2023-03-05T12:41:43.000Z,91.50
2023-03-05T12:45:07.246Z,91.70
2023-03-05T12:48:37.048Z,91.90
2023-03-05T12:51:41.783Z,91.30
2023-03-05T12:54:45.009Z,90.80
2023-03-05T12:57:51.419Z,91.20
2023-03-05T13:01:03.587Z,91.40
2023-03-05T13:04:14.624Z,91.20
2023-03-05T13:07:19.509Z,91.20
2023-03-05T13:10:24.827Z,90.60
2023-03-05T13:13:30.268Z,91.00
2023-03-05T13:16:39.957Z,90.90
2023-03-05T13:19:43.088Z,90.70
2023-03-05T13:22:45.979Z,90.70
2023-03-05T13:26:00.832Z,90.80
2023-03-05T13:29:10.200Z,90.80
2023-03-05T13:32:26.160Z,90.60
2023-03-05T13:35:29.192Z,90.60
2023-03-05T13:38:37.091Z,90.60
2023-03-05T13:41:40.064Z,90.40
2023-03-05T13:44:42.965Z,90.70
2023-03-05T13:47:53.600Z,90.40
2023-03-05T13:50:58.421Z,89.90
2023-03-05T13:54:01.336Z,89.80
2023-03-05T13:57:06.378Z,90.10
2023-03-05T14:00:28.059Z,90.10
2023-03-05T14:03:34.670Z,90.20
2023-03-05T14:06:43.433Z,90.30
2023-03-05T14:09:49.550Z,90.40
2023-03-05T14:12:52.806Z,90.40
2023-03-05T14:16:05.599Z,89.50
2023-03-05T14:19:34.682Z,90.10
2023-03-05T14:22:39.118Z,90.20
2023-03-05T14:25:42.153Z,90.30
2023-03-05T14:28:45.691Z,90.20
2023-03-05T14:31:50.869Z,90.10
2023-03-05T14:34:58.418Z,89.10
2023-03-05T14:38:01.769Z,89.20
2023-03-05T14:41:20.617Z,89.60
2023-03-05T14:44:25.538Z,89.30
2023-03-05T14:47:29.431Z,89.50
2023-03-05T14:50:35.745Z,88.90
2023-03-05T14:53:43.871Z,88.90
2023-03-05T14:56:49.548Z,91.60
2023-03-05T14:59:52.701Z,92.40
2023-03-05T15:02:56.100Z,90.00
2023-03-05T15:06:00.669Z,90.00
2023-03-05T15:09:05.066Z,89.60
2023-03-05T15:12:08.113Z,90.80
2023-03-05T15:15:14.475Z,90.70
2023-03-05T15:18:18.983Z,90.30
2023-03-05T15:21:23.245Z,90.30
2023-03-05T15:24:26.189Z,90.30
2023-03-05T15:27:29.080Z,89.90
2023-03-05T15:30:34.248Z,89.10
2023-03-05T15:33:37.378Z,88.40
2023-03-05T15:36:41.712Z,88.40
2023-03-05T15:39:44.927Z,86.60
2023-03-05T15:42:48.082Z,87.30
2023-03-05T15:45:50.991Z,87.70
2023-03-05T15:48:54.068Z,87.00
2023-03-05T15:51:59.057Z,87.10
2023-03-05T15:55:02.520Z,84.60
2023-03-05T15:58:05.408Z,83.90
2023-03-05T16:01:08.265Z,83.40
2023-03-05T16:04:11.235Z,83.00
2023-03-05T16:07:16.607Z,82.80
2023-03-05T16:10:22.020Z,82.60
2023-03-05T16:13:28.099Z,81.50
2023-03-05T16:16:32.393Z,81.90
2023-03-05T16:19:37.616Z,82.10
2023-03-05T16:22:41.821Z,82.40
2023-03-05T16:25:44.786Z,81.50
2023-03-05T16:28:47.646Z,81.30
2023-03-05T16:31:50.600Z,82.00
2023-03-05T16:34:53.572Z,80.90
2023-03-05T16:37:57.780Z,80.60
2023-03-05T16:41:08.191Z,80.90
2023-03-05T16:44:11.828Z,80.50
2023-03-05T16:47:14.773Z,81.10
2023-03-05T16:50:18.389Z,80.30
2023-03-05T16:53:22.770Z,80.60
2023-03-05T16:56:25.637Z,80.10
2023-03-05T16:59:28.681Z,80.10
2023-03-05T17:02:31.580Z,80.80
2023-03-05T17:05:37.104Z,80.00
2023-03-05T17:08:42.112Z,79.90
2023-03-05T17:11:44.995Z,80.10
2023-03-05T17:14:47.903Z,79.80
2023-03-05T17:17:51.056Z,79.60
2023-03-05T17:20:54.303Z,79.40
2023-03-05T17:23:58.519Z,79.60
2023-03-05T17:27:02.129Z,79.40
2023-03-05T17:30:06.181Z,78.80
2023-03-05T17:33:09.202Z,79.80
2023-03-05T17:36:16.878Z,79.50
2023-03-05T17:39:21.153Z,79.90
2023-03-05T17:42:24.094Z,79.90
2023-03-05T17:45:28.448Z,78.70
2023-03-05T17:48:33.954Z,78.60
2023-03-05T17:51:37.896Z,79.20
2023-03-05T17:54:42.202Z,79.80
2023-03-05T17:57:47.577Z,79.60
2023-03-05T18:00:50.483Z,79.10
2023-03-05T18:03:53.456Z,78.90
2023-03-05T18:06:56.412Z,78.90
2023-03-05T18:10:00.654Z,79.40
2023-03-05T18:13:03.665Z,79.20
2023-03-05T18:16:07.306Z,79.20
2023-03-05T18:19:10.824Z,79.20
2023-03-05T18:22:13.761Z,78.50
2023-03-05T18:25:18.122Z,79.40
2023-03-05T18:28:22.840Z,79.50
2023-03-05T18:31:26.004Z,79.30
2023-03-05T18:34:29.696Z,78.90
2023-03-05T18:37:32.588Z,79.00
2023-03-05T18:40:37.526Z,79.00
2023-03-05T18:43:40.831Z,79.40
2023-03-05T18:46:43.977Z,79.80
2023-03-05T18:49:46.892Z,89.80
2023-03-05T18:52:49.889Z,92.70
2023-03-05T18:55:55.568Z,83.20
2023-03-05T18:58:59.055Z,81.50
2023-03-05T19:02:02.003Z,80.10
2023-03-05T19:05:05.194Z,79.70
2023-03-05T19:08:08.572Z,80.30
2023-03-05T19:11:17.421Z,80.00
2023-03-05T19:14:20.255Z,80.40
2023-03-05T19:17:23.116Z,79.60
2023-03-05T19:20:25.988Z,79.40
2023-03-05T19:23:29.102Z,79.30
2023-03-05T19:26:33.623Z,79.20
2023-03-05T19:29:37.614Z,80.10
2023-03-05T19:32:40.657Z,81.50
2023-03-05T19:35:43.666Z,82.30
2023-03-05T19:38:48.666Z,81.40
2023-03-05T19:41:53.909Z,81.70
2023-03-05T19:44:58.412Z,81.90
2023-03-05T19:48:03.250Z,82.10
2023-03-05T19:51:11.466Z,82.00
2023-03-05T19:54:16.345Z,81.70
2023-03-05T19:57:20.555Z,81.20
2023-03-05T20:00:26.262Z,82.50
2023-03-05T20:03:29.161Z,83.20
2023-03-05T20:06:33.264Z,81.80
2023-03-05T20:09:36.157Z,82.90
2023-03-05T20:12:40.447Z,83.50
2023-03-05T20:15:43.338Z,82.70
2023-03-05T20:18:47.236Z,83.00
2023-03-05T20:21:50.112Z,82.50
2023-03-05T20:24:53.049Z,83.20
2023-03-05T20:27:57.307Z,83.60
2023-03-05T20:31:02.438Z,83.30
2023-03-05T20:34:06.060Z,82.20
2023-03-05T20:37:08.940Z,83.20
2023-03-05T20:40:13.065Z,83.30
2023-03-05T20:43:18.312Z,82.20
2023-03-05T20:46:23.504Z,82.20
2023-03-05T20:49:26.492Z,82.10
2023-03-05T20:52:29.368Z,83.60
2023-03-05T20:55:32.666Z,83.30
2023-03-05T20:58:37.557Z,82.20
2023-03-05T21:01:41.404Z,82.30
2023-03-05T21:04:44.314Z,82.40
2023-03-05T21:07:47.537Z,83.10
2023-03-05T21:10:50.925Z,84.10
2023-03-05T21:13:55.279Z,82.80
2023-03-05T21:16:58.413Z,82.20
2023-03-05T21:20:01.817Z,83.30
2023-03-05T21:23:04.875Z,83.90
2023-03-05T21:26:07.849Z,84.10
2023-03-05T21:29:12.301Z,83.40
2023-03-05T21:32:15.317Z,84.30
2023-03-05T21:35:21.075Z,84.30
2023-03-05T21:38:24.713Z,85.00
2023-03-05T21:41:27.587Z,84.70
2023-03-05T21:44:31.896Z,84.50
2023-03-05T21:47:35.394Z,84.90
2023-03-05T21:50:41.300Z,85.00
2023-03-05T21:53:44.203Z,84.50
2023-03-05T21:56:47.069Z,85.40
2023-03-05T21:59:51.298Z,85.00
2023-03-05T22:02:54.336Z,84.30
2023-03-05T22:05:57.666Z,85.00
2023-03-05T22:09:00.564Z,84.30
2023-03-05T22:12:04.687Z,84.50
2023-03-05T22:15:10.652Z,84.30
2023-03-05T22:18:14.538Z,84.10
2023-03-05T22:21:19.498Z,84.00
2023-03-05T22:24:25.008Z,83.80
2023-03-05T22:27:27.855Z,85.20
2023-03-05T22:30:32.658Z,85.60
2023-03-05T22:33:36.146Z,85.30
2023-03-05T22:36:39.050Z,86.40
2023-03-05T22:39:41.925Z,85.60
2023-03-05T22:42:45.716Z,85.30
2023-03-05T22:45:50.058Z,86.00
2023-03-05T22:48:53.483Z,86.20
2023-03-05T22:51:56.336Z,85.80
2023-03-05T22:55:01.275Z,85.70
2023-03-05T22:58:04.133Z,85.20
2023-03-05T23:01:14.013Z,85.20
2023-03-05T23:04:28.959Z,85.30
2023-03-05T23:07:34.526Z,86.40
2023-03-05T23:10:38.157Z,86.10
2023-03-05T23:13:41.895Z,86.60
2023-03-05T23:16:46.103Z,87.90
2023-03-05T23:19:49.039Z,87.10
2023-03-05T23:22:53.624Z,86.40
2023-03-05T23:25:56.665Z,86.20
2023-03-05T23:28:59.561Z,86.90
2023-03-05T23:32:04.149Z,86.70
2023-03-05T23:35:07.608Z,86.80
2023-03-05T23:38:13.466Z,86.80
2023-03-05T23:41:16.322Z,86.80
2023-03-05T23:44:19.180Z,86.20
2023-03-05T23:47:23.364Z,86.10
2023-03-05T23:50:28.796Z,86.80
2023-03-05T23:53:32.842Z,87.50
2023-03-05T23:56:35.711Z,87.10
2023-03-05T23:59:38.821Z,88.00
